Santa Fe, NM

6:03 PM MST on December 25, 2014 (GMT -0700)
Casa Solana | Change Station
CLOSE
Current Station
Personal Weather Station
Location: Santa Fe, NM
Elevation: 6930 ft
Nearby Weather Stations
Active Advisory: Winter Weather Advisory

Elev 6930 ft 35.69 °N, 105.96 °W | Updated 3 minutes ago

Overcast
Overcast
39.4 °F
Feels Like 39 °F
N
1.0
Wind Variable Wind from SSW
Gusts 1.0 mph

Today
High -- | Low -- °F
--% Chance of Precip.
Yesterday
High -- | Low -- °F
Precip. -- in
7:11 AM 4:56 PM
Waxing Crescent, 20% visible
Pressure 29.59 in
Visibility 10.0 miles
Clouds Scattered Clouds 7500 ft
Overcast 9000 ft
Windchill 39 °F
Dew Point 20 °F
Humidity 46%
Rainfall 0.00 in
Snow Depth Not available.
UV 0 out of 12
Pollen 2.90 out of 12
Air Quality Not available.
Flu Activity Not available.
METAR KSAF 260053Z 00000KT 10SM SCT075 OVC090 02/M07 A2962 RMK AO2 SLP019 T00171067

More Conditions Fewer Conditions

Pressure 29.59 in
Visibility 10.0 miles
Clouds Scattered Clouds 7500 ft
Overcast 9000 ft
Windchill 39 °F
Dew Point 20 °F
Humidity 46%
Rainfall 0.00 in
Snow Depth Not available.
UV 0 out of 12
Pollen 2.90 out of 12
Air Quality Not available.
Flu Activity Not available.
METAR KSAF 260053Z 00000KT 10SM SCT075 OVC090 02/M07 A2962 RMK AO2 SLP019 T00171067

More Conditions Fewer Conditions

Nowcast | as of 4:24 PM MST on December 25, 2014

Into the early evening...areas of snow will increase in coverage and intensify across western and north central areas. The visibility may drop below a half mile at times...especially along and west of the Continental Divide. By 7 PM MST up to 1 inch of additional snow accumulation will be possible along the west slopes of the northwest mountains and Continental Divide...except up to 2 inches above 7500 feet.

×

10-Day Weather Forecast

Almanac

Astronomy

Dec. 25, 2014 Rise Set
Actual Time
Civil Twilight
Nautical Twilight
Astronomical Twilight
Moon
Length of Visible Light
Length of Day
Tomorrow will be .
, % of the Moon is Illuminated

Today's Extremes

State Highs State Lows

Community

WunderPhotos

Upload Photos

1,780,487 photos uploaded!

WunderBlogs® & News

Nearby

Air Quality

  Air Quality AQ Index Pollutant
Not available.

Snow Depth

Station Depth Elevation

Earthquake Activity

City Distance Mag. Time & Date
Minimum magnitude displayed is 2.5.

Coastal Water Temperatures

Place Temperature

Nearby Weather Stations